createdAt,value
2024-02-16T00:00:23.202Z,95.94
2024-02-16T00:01:23.127Z,95.84
2024-02-16T00:02:23.108Z,95.53
2024-02-16T00:03:23.186Z,95.64
2024-02-16T00:04:23.123Z,95.02
2024-02-16T00:05:23.117Z,94.51
2024-02-16T00:06:23.127Z,94.76
2024-02-16T00:07:23.117Z,94.96
2024-02-16T00:08:23.100Z,95.37
2024-02-16T00:09:23.088Z,95.57
2024-02-16T00:10:23.076Z,95.98
2024-02-16T00:11:23.050Z,95.98
2024-02-16T00:12:23.083Z,96.09
2024-02-16T00:13:23.017Z,96.09
2024-02-16T00:14:22.980Z,95.98
2024-02-16T00:15:23.094Z,96.09
2024-02-16T00:16:22.986Z,96.19
2024-02-16T00:17:22.958Z,96.40
2024-02-16T00:18:23.107Z,96.70
2024-02-16T00:19:23.061Z,96.70
2024-02-16T00:20:22.931Z,96.81
2024-02-16T00:21:22.946Z,96.81
2024-02-16T00:22:22.916Z,96.60
2024-02-16T00:23:22.896Z,96.70
2024-02-16T00:24:22.905Z,96.70
2024-02-16T00:25:22.854Z,96.40
2024-02-16T00:26:22.852Z,96.04
2024-02-16T00:27:23.017Z,95.84
2024-02-16T00:28:22.821Z,95.68
2024-02-16T00:29:22.852Z,95.37
2024-02-16T00:30:22.922Z,95.57
2024-02-16T00:31:22.812Z,95.89
2024-02-16T00:32:22.794Z,95.98
2024-02-16T00:33:22.923Z,96.19
2024-02-16T00:34:22.867Z,96.44
2024-02-16T00:35:22.752Z,96.55
2024-02-16T00:36:22.770Z,96.60
2024-02-16T00:37:22.744Z,96.60
2024-02-16T00:38:22.736Z,96.50
2024-02-16T00:39:22.760Z,96.40
2024-02-16T00:40:22.734Z,96.30
2024-02-16T00:41:22.681Z,96.19
2024-02-16T00:42:22.787Z,96.19
2024-02-16T00:43:22.653Z,96.30
2024-02-16T00:44:22.647Z,96.40
2024-02-16T00:45:22.693Z,96.30
2024-02-16T00:46:22.653Z,96.30
2024-02-16T00:47:22.622Z,96.30
2024-02-16T00:48:22.702Z,96.30
2024-02-16T00:49:22.711Z,96.19
2024-02-16T00:50:22.598Z,96.19
2024-02-16T00:51:22.619Z,96.19
2024-02-16T00:52:22.601Z,96.19
2024-02-16T00:53:22.551Z,96.19
2024-02-16T00:54:22.558Z,96.30
2024-02-16T00:55:22.562Z,96.40
2024-02-16T00:56:22.515Z,96.70
2024-02-16T00:57:22.536Z,96.60
2024-02-16T00:58:22.516Z,96.35
2024-02-16T00:59:22.487Z,96.56
2024-02-16T01:00:22.527Z,96.56
2024-02-16T01:01:22.534Z,96.56
2024-02-16T01:02:22.464Z,96.45
2024-02-16T01:03:22.472Z,96.66
2024-02-16T01:04:22.472Z,96.66
2024-02-16T01:05:22.528Z,96.77
2024-02-16T01:06:22.474Z,96.77
2024-02-16T01:07:22.449Z,96.66
2024-02-16T01:08:22.413Z,96.56
2024-02-16T01:09:22.423Z,96.45
2024-02-16T01:10:22.379Z,96.25
2024-02-16T01:11:22.383Z,96.35
2024-02-16T01:12:22.408Z,96.66
2024-02-16T01:13:22.374Z,96.66
2024-02-16T01:14:22.335Z,96.45
2024-02-16T01:15:22.365Z,96.35
2024-02-16T01:16:22.313Z,96.35
2024-02-16T01:17:22.303Z,96.15
2024-02-16T01:18:22.520Z,96.04
2024-02-16T01:19:22.361Z,96.35
2024-02-16T01:20:22.282Z,96.31
2024-02-16T01:21:22.322Z,96.31
2024-02-16T01:22:22.238Z,96.10
2024-02-16T01:23:22.234Z,96.10
2024-02-16T01:24:22.548Z,96.10
2024-02-16T01:25:22.208Z,96.00
2024-02-16T01:26:22.213Z,96.20
2024-02-16T01:27:22.228Z,96.20
2024-02-16T01:28:22.202Z,96.10
2024-02-16T01:29:22.173Z,96.10
2024-02-16T01:30:22.234Z,96.00
2024-02-16T01:31:22.152Z,96.00
2024-02-16T01:32:22.146Z,95.90
2024-02-16T01:33:22.295Z,96.00
2024-02-16T01:34:22.197Z,95.90
2024-02-16T01:35:22.103Z,95.69
2024-02-16T01:36:22.188Z,95.59
2024-02-16T01:37:22.081Z,95.69
2024-02-16T01:38:22.084Z,95.49
2024-02-16T01:39:22.082Z,95.03
2024-02-16T01:40:22.061Z,95.24
2024-02-16T01:41:22.056Z,95.14
2024-02-16T01:42:22.067Z,94.93
2024-02-16T01:43:22.029Z,94.83
2024-02-16T01:44:22.020Z,94.83
2024-02-16T01:45:22.050Z,95.03
2024-02-16T01:46:21.975Z,95.14
2024-02-16T01:47:22.001Z,95.03
2024-02-16T01:48:22.191Z,94.93
2024-02-16T01:49:22.051Z,94.83
2024-02-16T01:50:21.945Z,95.24
2024-02-16T01:51:21.963Z,95.24
2024-02-16T01:52:21.977Z,95.14
2024-02-16T01:53:21.914Z,95.03
2024-02-16T01:54:21.983Z,94.83
2024-02-16T01:55:21.897Z,94.77
2024-02-16T01:56:21.903Z,94.77
2024-02-16T01:57:21.916Z,94.87
2024-02-16T01:58:21.855Z,95.07
2024-02-16T01:59:21.850Z,95.18
2024-02-16T02:00:21.940Z,95.07
2024-02-16T02:01:21.840Z,95.07
2024-02-16T02:02:21.829Z,94.98
2024-02-16T02:03:21.864Z,95.07
2024-02-16T02:04:21.837Z,95.07
2024-02-16T02:05:21.903Z,95.07
2024-02-16T02:06:21.881Z,94.87
2024-02-16T02:07:21.857Z,94.87
2024-02-16T02:08:21.747Z,94.32
2024-02-16T02:09:21.768Z,94.32
2024-02-16T02:10:21.756Z,94.21
2024-02-16T02:11:21.782Z,94.42
2024-02-16T02:12:21.760Z,94.32
2024-02-16T02:13:21.696Z,94.11
2024-02-16T02:14:21.715Z,94.11
2024-02-16T02:15:21.708Z,93.70
2024-02-16T02:16:21.693Z,93.90
2024-02-16T02:17:21.737Z,93.70
2024-02-16T02:18:21.854Z,93.80
2024-02-16T02:19:21.857Z,93.70
2024-02-16T02:20:21.646Z,93.60
2024-02-16T02:21:21.644Z,93.49
2024-02-16T02:22:21.585Z,93.35
2024-02-16T02:23:21.621Z,92.94
2024-02-16T02:24:21.620Z,92.94
2024-02-16T02:25:24.005Z,92.83
2024-02-16T02:26:21.558Z,92.74
2024-02-16T02:27:21.605Z,92.83
2024-02-16T02:28:21.527Z,92.83
2024-02-16T02:29:21.545Z,92.74
2024-02-16T02:30:21.573Z,92.83
2024-02-16T02:31:21.495Z,92.74
2024-02-16T02:32:21.504Z,92.43
2024-02-16T02:33:21.886Z,92.53
2024-02-16T02:34:21.534Z,92.53
2024-02-16T02:35:21.496Z,92.63
2024-02-16T02:36:21.441Z,92.43
2024-02-16T02:37:21.433Z,92.12
2024-02-16T02:38:21.417Z,92.22
2024-02-16T02:39:21.500Z,92.22
2024-02-16T02:40:21.449Z,92.12
2024-02-16T02:41:21.569Z,92.02
2024-02-16T02:42:21.415Z,92.02
2024-02-16T02:43:21.380Z,91.91
2024-02-16T02:44:21.365Z,92.12
2024-02-16T02:45:21.378Z,91.91
2024-02-16T02:46:21.365Z,91.71
2024-02-16T02:47:21.320Z,91.91
2024-02-16T02:48:21.456Z,91.91
2024-02-16T02:49:21.463Z,92.12
2024-02-16T02:50:21.358Z,92.02
2024-02-16T02:51:21.392Z,91.91
2024-02-16T02:52:21.269Z,92.32
2024-02-16T02:53:21.260Z,92.43
2024-02-16T02:54:21.272Z,92.12
2024-02-16T02:55:21.235Z,92.02
2024-02-16T02:56:21.233Z,92.02
2024-02-16T02:57:21.268Z,92.02
2024-02-16T02:58:21.209Z,91.61
2024-02-16T02:59:21.204Z,91.82
2024-02-16T03:00:21.307Z,91.82
2024-02-16T03:01:21.188Z,91.91
2024-02-16T03:02:21.174Z,92.12
2024-02-16T03:03:21.233Z,92.32
2024-02-16T03:04:21.174Z,92.22
2024-02-16T03:05:21.184Z,92.43
2024-02-16T03:06:21.243Z,91.71
2024-02-16T03:07:21.169Z,91.71
2024-02-16T03:08:21.180Z,91.71
2024-02-16T03:09:21.155Z,91.61
2024-02-16T03:10:21.084Z,91.71
2024-02-16T03:11:21.155Z,91.61
2024-02-16T03:12:21.106Z,91.82
2024-02-16T03:13:21.071Z,91.82
2024-02-16T03:14:21.043Z,91.91
2024-02-16T03:15:21.040Z,91.61
2024-02-16T03:16:21.016Z,91.30
2024-02-16T03:17:20.999Z,91.30
2024-02-16T03:18:21.120Z,91.50
2024-02-16T03:19:21.202Z,91.40
2024-02-16T03:20:20.988Z,90.99
2024-02-16T03:21:21.047Z,90.99
2024-02-16T03:22:20.957Z,90.95
2024-02-16T03:23:20.950Z,90.34
2024-02-16T03:24:20.942Z,90.23
2024-02-16T03:25:20.940Z,90.34
2024-02-16T03:26:20.929Z,90.23
2024-02-16T03:27:20.908Z,90.44
2024-02-16T03:28:20.890Z,90.23
2024-02-16T03:29:20.877Z,90.03
2024-02-16T03:30:20.951Z,90.03
2024-02-16T03:31:20.860Z,90.13
2024-02-16T03:32:20.839Z,90.13
2024-02-16T03:33:20.918Z,90.34
2024-02-16T03:34:20.979Z,90.75
2024-02-16T03:35:20.835Z,90.64
2024-02-16T03:36:21.200Z,90.03
2024-02-16T03:37:20.805Z,89.92
2024-02-16T03:38:20.782Z,89.92
2024-02-16T03:39:20.836Z,90.13
2024-02-16T03:40:20.761Z,90.23
2024-02-16T03:41:20.784Z,90.03
2024-02-16T03:42:20.813Z,90.13
2024-02-16T03:43:20.725Z,90.09
2024-02-16T03:44:20.711Z,89.98
2024-02-16T03:45:20.734Z,90.34
2024-02-16T03:46:20.706Z,90.50
2024-02-16T03:47:20.713Z,90.64
2024-02-16T03:48:20.800Z,90.81
2024-02-16T03:49:20.860Z,90.60
2024-02-16T03:50:20.651Z,90.30
2024-02-16T03:51:20.657Z,90.30
2024-02-16T03:52:20.667Z,90.30
2024-02-16T03:53:20.656Z,90.60
2024-02-16T03:54:20.671Z,90.39
2024-02-16T03:55:20.618Z,91.22
2024-02-16T03:56:20.584Z,91.42
2024-02-16T03:57:20.631Z,91.31
2024-02-16T03:58:20.583Z,91.11
2024-02-16T03:59:20.585Z,91.01
2024-02-16T04:00:20.570Z,90.70
2024-02-16T04:01:20.667Z,90.60
2024-02-16T04:02:20.696Z,90.36
2024-02-16T04:03:20.677Z,90.15
2024-02-16T04:04:20.703Z,90.15
2024-02-16T04:05:20.520Z,91.17
2024-02-16T04:06:20.562Z,91.17
2024-02-16T04:07:20.538Z,91.78
2024-02-16T04:08:20.458Z,92.19
2024-02-16T04:09:20.462Z,92.03
2024-02-16T04:10:20.472Z,92.24
2024-02-16T04:11:20.512Z,92.85
2024-02-16T04:12:20.499Z,93.37
2024-02-16T04:13:20.432Z,93.37
2024-02-16T04:14:20.433Z,93.47
2024-02-16T04:15:20.478Z,93.16
2024-02-16T04:16:20.439Z,93.26
2024-02-16T04:17:20.374Z,93.77
2024-02-16T04:18:20.557Z,94.29
2024-02-16T04:19:20.542Z,94.33
2024-02-16T04:20:20.339Z,93.10
2024-02-16T04:21:20.369Z,92.59
2024-02-16T04:22:20.348Z,92.79
2024-02-16T04:23:20.336Z,92.69
2024-02-16T04:24:20.393Z,92.85
2024-02-16T04:25:20.299Z,92.90
2024-02-16T04:26:20.273Z,93.06
2024-02-16T04:27:20.300Z,92.55
2024-02-16T04:28:20.240Z,92.75
2024-02-16T04:29:20.287Z,92.96
2024-02-16T04:30:20.289Z,93.16
2024-02-16T04:31:20.264Z,93.16
2024-02-16T04:32:20.213Z,92.96
2024-02-16T04:33:20.305Z,93.16
2024-02-16T04:34:20.303Z,92.65
2024-02-16T04:35:20.333Z,92.44
2024-02-16T04:36:20.244Z,92.85
2024-02-16T04:37:20.195Z,93.37
2024-02-16T04:38:20.133Z,93.47
2024-02-16T04:39:20.178Z,93.77
2024-02-16T04:40:20.117Z,93.47
2024-02-16T04:41:20.128Z,93.88
2024-02-16T04:42:20.167Z,94.12
2024-02-16T04:43:20.109Z,94.02
2024-02-16T04:44:20.078Z,94.33
2024-02-16T04:45:20.131Z,94.23
2024-02-16T04:46:20.052Z,94.23
2024-02-16T04:47:20.055Z,94.64
2024-02-16T04:48:20.147Z,93.92
2024-02-16T04:49:20.147Z,94.33
2024-02-16T04:50:20.018Z,93.51
2024-02-16T04:51:20.040Z,93.30
2024-02-16T04:52:19.994Z,93.51
2024-02-16T04:53:20.056Z,93.92
2024-02-16T04:54:19.984Z,93.92
2024-02-16T04:55:19.968Z,93.92
2024-02-16T04:56:19.943Z,95.05
2024-02-16T04:57:19.990Z,94.74
2024-02-16T04:58:19.935Z,94.33
2024-02-16T04:59:19.923Z,94.43
2024-02-16T05:00:19.984Z,94.43
2024-02-16T05:01:19.968Z,94.54
2024-02-16T05:02:19.876Z,94.02
2024-02-16T05:03:19.966Z,94.43
2024-02-16T05:04:20.009Z,94.33
2024-02-16T05:05:19.856Z,94.23
2024-02-16T05:06:19.942Z,94.02
2024-02-16T05:07:19.911Z,94.54
2024-02-16T05:08:19.882Z,94.43
2024-02-16T05:09:19.899Z,93.62
2024-02-16T05:10:19.815Z,93.71
2024-02-16T05:11:20.119Z,94.02
2024-02-16T05:12:19.809Z,94.12
2024-02-16T05:13:19.798Z,93.30
2024-02-16T05:14:19.757Z,93.30
2024-02-16T05:15:19.777Z,92.90
2024-02-16T05:16:19.798Z,93.00
2024-02-16T05:17:19.727Z,93.82
2024-02-16T05:18:19.771Z,93.62
2024-02-16T05:19:19.891Z,94.02
2024-02-16T05:20:19.709Z,94.02
2024-02-16T05:21:19.723Z,94.02
2024-02-16T05:22:19.679Z,94.43
2024-02-16T05:23:19.697Z,95.05
2024-02-16T05:24:19.700Z,95.25
2024-02-16T05:25:19.635Z,95.15
2024-02-16T05:26:19.632Z,94.95
2024-02-16T05:27:19.691Z,94.99
2024-02-16T05:28:19.609Z,94.89
2024-02-16T05:29:19.673Z,94.99
2024-02-16T05:30:19.630Z,95.09
2024-02-16T05:31:19.696Z,95.20
2024-02-16T05:32:19.606Z,95.40
2024-02-16T05:33:19.762Z,95.40
2024-02-16T05:34:19.674Z,95.09
2024-02-16T05:35:19.542Z,96.12
2024-02-16T05:36:19.639Z,96.01
2024-02-16T05:37:19.518Z,95.81
2024-02-16T05:38:19.517Z,95.91
2024-02-16T05:39:19.640Z,95.81
2024-02-16T05:40:19.499Z,95.61
2024-02-16T05:41:19.482Z,95.70
2024-02-16T05:42:19.508Z,95.70
2024-02-16T05:43:19.448Z,95.70
2024-02-16T05:44:19.431Z,95.70
2024-02-16T05:45:19.482Z,96.32
2024-02-16T05:46:19.427Z,96.12
2024-02-16T05:47:19.402Z,95.09
2024-02-16T05:48:19.468Z,94.99
2024-02-16T05:49:19.506Z,94.78
2024-02-16T05:50:19.450Z,94.89
2024-02-16T05:51:19.405Z,94.78
2024-02-16T05:52:19.399Z,95.09
2024-02-16T05:53:19.372Z,95.29
2024-02-16T05:54:19.409Z,95.40
2024-02-16T05:55:19.346Z,95.29
2024-02-16T05:56:19.294Z,95.50
2024-02-16T05:57:19.345Z,95.61
2024-02-16T05:58:19.290Z,95.20
2024-02-16T05:59:19.287Z,95.29
2024-02-16T06:00:19.265Z,94.99
2024-02-16T06:01:19.345Z,94.68
2024-02-16T06:02:19.272Z,94.48
2024-02-16T06:03:19.305Z,94.37
2024-02-16T06:04:19.287Z,94.27
2024-02-16T06:05:19.267Z,94.17
2024-02-16T06:06:19.308Z,94.12
2024-02-16T06:07:19.597Z,94.02
2024-02-16T06:08:19.183Z,93.82
2024-02-16T06:09:19.270Z,93.82
2024-02-16T06:10:19.204Z,93.92
2024-02-16T06:11:19.218Z,93.41
2024-02-16T06:12:19.303Z,93.30
2024-02-16T06:13:19.158Z,93.10
2024-02-16T06:14:20.545Z,93.62
2024-02-16T06:15:19.266Z,93.62
2024-02-16T06:16:19.147Z,93.62
2024-02-16T06:17:19.159Z,93.71
2024-02-16T06:18:19.192Z,94.02
2024-02-16T06:19:19.213Z,93.92
2024-02-16T06:20:21.067Z,93.82
2024-02-16T06:21:19.127Z,93.92
2024-02-16T06:22:19.031Z,94.12
2024-02-16T06:23:19.109Z,94.17
2024-02-16T06:24:19.078Z,94.17
2024-02-16T06:25:19.346Z,94.17
2024-02-16T06:26:19.017Z,94.17
2024-02-16T06:27:19.083Z,94.37
2024-02-16T06:28:19.030Z,94.37
2024-02-16T06:29:18.979Z,94.58
2024-02-16T06:30:19.049Z,94.78
2024-02-16T06:31:19.089Z,94.89
2024-02-16T06:32:18.941Z,94.78
2024-02-16T06:33:19.094Z,94.89
2024-02-16T06:34:19.028Z,94.93
2024-02-16T06:35:19.058Z,95.03
2024-02-16T06:36:18.958Z,95.14
2024-02-16T06:37:18.922Z,95.24
2024-02-16T06:38:18.953Z,95.03
2024-02-16T06:39:19.012Z,94.93
2024-02-16T06:40:18.871Z,94.58
2024-02-16T06:41:18.873Z,94.48
2024-02-16T06:42:18.969Z,94.37
2024-02-16T06:43:18.844Z,94.27
2024-02-16T06:44:21.796Z,94.17
2024-02-16T06:45:18.867Z,94.17
2024-02-16T06:46:19.004Z,94.27
2024-02-16T06:47:18.810Z,94.17
2024-02-16T06:48:18.981Z,94.17
2024-02-16T06:49:18.828Z,94.37
2024-02-16T06:50:18.828Z,94.27
2024-02-16T06:51:18.900Z,94.37
2024-02-16T06:52:18.909Z,94.48
2024-02-16T06:53:18.747Z,94.11
2024-02-16T06:54:18.789Z,94.21
2024-02-16T06:55:18.681Z,94.42
2024-02-16T06:56:18.829Z,94.42
2024-02-16T06:57:18.729Z,94.32
2024-02-16T06:58:18.752Z,94.21
2024-02-16T06:59:18.655Z,94.52
2024-02-16T07:00:18.665Z,94.52
2024-02-16T07:01:18.665Z,94.42
2024-02-16T07:02:18.755Z,94.32
2024-02-16T07:03:18.874Z,94.62
2024-02-16T07:04:18.689Z,94.52
2024-02-16T07:05:18.596Z,94.52
2024-02-16T07:06:18.702Z,94.32
2024-02-16T07:07:18.811Z,94.32
2024-02-16T07:08:18.564Z,94.11
2024-02-16T07:09:18.590Z,94.01
2024-02-16T07:10:18.604Z,94.11
2024-02-16T07:11:18.562Z,94.21
2024-02-16T07:12:18.648Z,94.32
2024-02-16T07:13:18.479Z,94.32
2024-02-16T07:14:18.538Z,94.52
2024-02-16T07:15:18.523Z,94.52
2024-02-16T07:16:18.557Z,94.42
2024-02-16T07:17:18.461Z,94.52
2024-02-16T07:18:18.599Z,94.68
2024-02-16T07:19:18.553Z,94.73
2024-02-16T07:20:18.436Z,94.58
2024-02-16T07:21:18.446Z,94.58
2024-02-16T07:22:18.428Z,94.48
2024-02-16T07:23:18.374Z,94.58
2024-02-16T07:24:18.476Z,94.58
2024-02-16T07:25:18.402Z,94.48
2024-02-16T07:26:18.367Z,94.48
2024-02-16T07:27:18.394Z,94.54
2024-02-16T07:28:18.379Z,94.54
2024-02-16T07:29:18.415Z,94.43
2024-02-16T07:30:23.666Z,94.33
2024-02-16T07:31:18.396Z,94.12
2024-02-16T07:32:18.297Z,93.92
2024-02-16T07:33:18.387Z,93.88
2024-02-16T07:34:18.376Z,94.08
2024-02-16T07:35:21.297Z,93.98
2024-02-16T07:36:18.329Z,93.57
2024-02-16T07:37:18.280Z,93.63
2024-02-16T07:38:18.245Z,93.63
2024-02-16T07:39:18.278Z,93.63
2024-02-16T07:40:18.234Z,93.32
2024-02-16T07:41:18.224Z,93.12
2024-02-16T07:42:18.282Z,93.07
2024-02-16T07:43:18.169Z,93.48
2024-02-16T07:44:18.173Z,93.18
2024-02-16T07:45:18.255Z,92.15
2024-02-16T07:46:18.161Z,90.92
2024-02-16T07:47:18.142Z,90.82
2024-02-16T07:48:18.242Z,90.37
2024-02-16T07:49:18.285Z,90.68
2024-02-16T07:50:18.116Z,90.78
2024-02-16T07:51:18.180Z,90.37
2024-02-16T07:52:18.081Z,90.27
2024-02-16T07:53:18.100Z,89.15
2024-02-16T07:54:18.154Z,89.11
2024-02-16T07:55:18.036Z,89.00
2024-02-16T07:56:18.045Z,88.79
2024-02-16T07:57:18.069Z,88.79
2024-02-16T07:58:18.078Z,88.76
2024-02-16T07:59:17.996Z,88.85
2024-02-16T08:00:18.108Z,88.85
2024-02-16T08:01:18.090Z,88.04
2024-02-16T08:02:17.976Z,87.53
2024-02-16T08:03:17.998Z,86.91
2024-02-16T08:04:17.999Z,87.32
2024-02-16T08:05:17.973Z,87.43
2024-02-16T08:06:18.099Z,87.53
2024-02-16T08:07:18.048Z,88.14
2024-02-16T08:08:17.906Z,88.45
2024-02-16T08:09:17.946Z,88.96
2024-02-16T08:10:17.938Z,88.65
2024-02-16T08:11:17.929Z,88.55
2024-02-16T08:12:17.917Z,88.45
2024-02-16T08:13:17.853Z,88.14
2024-02-16T08:14:17.846Z,88.14
2024-02-16T08:15:17.892Z,88.45
2024-02-16T08:16:17.816Z,88.45
2024-02-16T08:17:20.274Z,88.96
2024-02-16T08:18:17.976Z,89.58
2024-02-16T08:19:17.868Z,89.98
2024-02-16T08:20:17.820Z,90.23
2024-02-16T08:21:17.925Z,90.23
2024-02-16T08:22:17.843Z,90.43
2024-02-16T08:23:17.921Z,90.02
2024-02-16T08:24:17.914Z,89.61
2024-02-16T08:25:17.727Z,90.23
2024-02-16T08:26:17.736Z,89.82
2024-02-16T08:27:17.731Z,89.41
2024-02-16T08:28:17.718Z,89.47
2024-02-16T08:29:17.658Z,89.67
2024-02-16T08:30:17.724Z,89.88
2024-02-16T08:31:17.663Z,89.37
2024-02-16T08:32:17.830Z,89.58
2024-02-16T08:33:17.936Z,89.58
2024-02-16T08:34:17.739Z,89.47
2024-02-16T08:35:17.769Z,89.67
2024-02-16T08:36:17.690Z,89.58
2024-02-16T08:37:17.757Z,89.58
2024-02-16T08:38:17.590Z,88.55
2024-02-16T08:39:18.354Z,88.96
2024-02-16T08:40:17.596Z,89.17
2024-02-16T08:41:17.575Z,89.17
2024-02-16T08:42:17.696Z,88.96
2024-02-16T08:43:17.578Z,89.23
2024-02-16T08:44:17.516Z,88.92
2024-02-16T08:45:17.543Z,88.31
2024-02-16T08:46:17.506Z,88.00
2024-02-16T08:47:17.480Z,88.41
2024-02-16T08:48:17.850Z,88.31
2024-02-16T08:49:17.522Z,88.41
2024-02-16T08:50:17.473Z,88.41
2024-02-16T08:51:17.445Z,88.82
2024-02-16T08:52:17.451Z,89.23
2024-02-16T08:53:17.409Z,89.12
2024-02-16T08:54:17.463Z,89.23
2024-02-16T08:55:17.383Z,89.73
2024-02-16T08:56:17.398Z,90.04
2024-02-16T08:57:17.444Z,89.84
2024-02-16T08:58:17.338Z,89.73
2024-02-16T08:59:17.326Z,89.53
2024-02-16T09:00:17.505Z,89.43
2024-02-16T09:01:17.351Z,89.63
2024-02-16T09:02:17.322Z,89.84
2024-02-16T09:03:17.350Z,89.63
2024-02-16T09:04:17.442Z,89.94
2024-02-16T09:05:17.339Z,90.35
2024-02-16T09:06:17.421Z,90.14
2024-02-16T09:07:17.376Z,90.35
2024-02-16T09:08:17.258Z,90.14
2024-02-16T09:09:17.237Z,89.84
2024-02-16T09:10:17.230Z,89.94
2024-02-16T09:11:17.248Z,89.94
2024-02-16T09:12:17.294Z,89.73
2024-02-16T09:13:24.458Z,89.94
2024-02-16T09:14:17.199Z,89.73
2024-02-16T09:15:17.252Z,90.04
2024-02-16T09:16:17.154Z,89.73
2024-02-16T09:17:17.143Z,89.63
2024-02-16T09:18:17.265Z,89.39
2024-02-16T09:19:17.247Z,89.08
2024-02-16T09:20:17.275Z,88.37
2024-02-16T09:21:17.144Z,88.37
2024-02-16T09:22:17.167Z,87.76
2024-02-16T09:23:17.083Z,88.26
2024-02-16T09:24:17.147Z,88.37
2024-02-16T09:25:17.064Z,88.78
2024-02-16T09:26:17.073Z,88.88
2024-02-16T09:27:17.078Z,89.28
2024-02-16T09:28:23.731Z,89.39
2024-02-16T09:29:17.001Z,89.08
2024-02-16T09:30:17.982Z,89.08
2024-02-16T09:31:16.976Z,88.98
2024-02-16T09:32:16.990Z,89.18
2024-02-16T09:33:17.135Z,89.49
2024-02-16T09:34:17.107Z,89.08
2024-02-16T09:35:17.020Z,88.78
2024-02-16T09:36:16.983Z,89.08
2024-02-16T09:37:16.946Z,89.59
2024-02-16T09:38:16.891Z,89.34
2024-02-16T09:39:16.906Z,88.63
2024-02-16T09:40:16.962Z,88.53
2024-02-16T09:41:16.867Z,88.73
2024-02-16T09:42:16.960Z,88.22
2024-02-16T09:43:16.861Z,88.53
2024-02-16T09:44:16.890Z,87.82
2024-02-16T09:45:16.925Z,87.57
2024-02-16T09:46:16.847Z,87.57
2024-02-16T09:47:16.793Z,87.06
2024-02-16T09:48:17.007Z,87.37
2024-02-16T09:49:18.041Z,87.16
2024-02-16T09:50:17.006Z,87.37
2024-02-16T09:51:16.761Z,87.16
2024-02-16T09:52:16.763Z,86.96
2024-02-16T09:53:16.745Z,86.55
2024-02-16T09:54:16.822Z,86.45
2024-02-16T09:55:16.700Z,85.90
2024-02-16T09:56:16.896Z,85.80
2024-02-16T09:57:16.708Z,86.41
2024-02-16T09:58:16.766Z,86.00
2024-02-16T09:59:16.675Z,85.80
2024-02-16T10:00:16.750Z,85.75
2024-02-16T10:01:16.670Z,85.19
2024-02-16T10:02:16.684Z,85.75
2024-02-16T10:03:16.696Z,85.66
2024-02-16T10:04:16.625Z,85.66
2024-02-16T10:05:16.705Z,84.39
2024-02-16T10:06:16.940Z,84.59
2024-02-16T10:07:16.665Z,85.00
2024-02-16T10:08:16.612Z,83.98
2024-02-16T10:09:16.607Z,83.89
2024-02-16T10:10:16.588Z,85.27
2024-02-16T10:11:16.586Z,83.89
2024-02-16T10:12:16.637Z,83.64
2024-02-16T10:13:16.541Z,84.35
2024-02-16T10:14:16.538Z,83.84
2024-02-16T10:15:16.528Z,83.34
2024-02-16T10:16:16.524Z,83.44
2024-02-16T10:17:16.482Z,83.20
2024-02-16T10:18:16.629Z,83.50
2024-02-16T10:19:18.434Z,82.99
2024-02-16T10:20:16.491Z,83.20
2024-02-16T10:21:16.488Z,82.89
2024-02-16T10:22:16.516Z,82.54
2024-02-16T10:23:16.415Z,83.06
2024-02-16T10:24:16.660Z,82.14
2024-02-16T10:25:16.598Z,81.43
2024-02-16T10:26:16.437Z,82.14
2024-02-16T10:27:16.373Z,81.84
2024-02-16T10:28:16.414Z,80.51
2024-02-16T10:29:16.356Z,81.12
2024-02-16T10:30:16.455Z,80.72
2024-02-16T10:31:16.346Z,81.19
2024-02-16T10:32:16.321Z,81.09
2024-02-16T10:33:16.393Z,81.59
2024-02-16T10:34:16.547Z,81.39
2024-02-16T10:35:16.353Z,81.39
2024-02-16T10:36:16.315Z,81.09
2024-02-16T10:37:16.274Z,79.77
2024-02-16T10:38:16.246Z,79.46
2024-02-16T10:39:16.360Z,79.25
2024-02-16T10:40:16.241Z,79.66
2024-02-16T10:41:16.192Z,79.86
2024-02-16T10:42:16.324Z,79.16
2024-02-16T10:43:16.185Z,78.99
2024-02-16T10:44:16.248Z,79.29
2024-02-16T10:45:16.386Z,80.07
2024-02-16T10:46:16.310Z,79.97
2024-02-16T10:47:16.177Z,80.17
2024-02-16T10:48:16.211Z,79.97
2024-02-16T10:49:16.273Z,80.78
2024-02-16T10:50:16.294Z,80.17
2024-02-16T10:51:16.309Z,79.77
2024-02-16T10:52:16.199Z,79.36
2024-02-16T10:53:16.112Z,79.97
2024-02-16T10:54:16.195Z,80.98
2024-02-16T10:55:16.248Z,80.78
2024-02-16T10:56:16.230Z,80.27
2024-02-16T10:57:16.092Z,80.27
2024-02-16T10:58:16.064Z,79.86
2024-02-16T10:59:16.137Z,80.47
2024-02-16T11:00:16.071Z,79.77
2024-02-16T11:01:15.995Z,80.07
2024-02-16T11:02:15.997Z,79.86
2024-02-16T11:03:16.030Z,80.07
2024-02-16T11:04:16.193Z,79.77
2024-02-16T11:05:16.096Z,80.17
2024-02-16T11:06:16.156Z,80.07
2024-02-16T11:07:16.049Z,80.27
2024-02-16T11:08:16.028Z,81.09
2024-02-16T11:09:16.019Z,80.37
2024-02-16T11:10:15.911Z,80.47
2024-02-16T11:11:15.990Z,80.84
2024-02-16T11:12:15.987Z,80.44
2024-02-16T11:13:15.909Z,80.03
2024-02-16T11:14:15.856Z,79.52
2024-02-16T11:15:15.954Z,79.12
2024-02-16T11:16:15.817Z,79.52
2024-02-16T11:17:15.880Z,79.32
2024-02-16T11:18:15.918Z,79.12
2024-02-16T11:19:15.935Z,79.22
2024-02-16T11:20:15.842Z,78.47
2024-02-16T11:21:15.832Z,78.88
2024-02-16T11:22:15.796Z,79.38
2024-02-16T11:23:15.775Z,78.47
2024-02-16T11:24:15.873Z,78.88
2024-02-16T11:25:15.784Z,77.97
2024-02-16T11:26:15.725Z,78.57
2024-02-16T11:27:15.764Z,77.66
2024-02-16T11:28:15.725Z,77.76
2024-02-16T11:29:15.747Z,78.37
2024-02-16T11:30:15.795Z,77.25
2024-02-16T11:31:15.696Z,77.45
2024-02-16T11:32:15.679Z,77.42
2024-02-16T11:33:15.874Z,77.72
2024-02-16T11:34:15.757Z,76.91
2024-02-16T11:35:15.651Z,77.72
2024-02-16T11:36:15.613Z,77.22
2024-02-16T11:37:15.825Z,77.42
2024-02-16T11:38:15.582Z,76.91
2024-02-16T11:39:15.626Z,76.20
2024-02-16T11:40:15.577Z,77.12
2024-02-16T11:41:15.679Z,77.22
2024-02-16T11:42:15.593Z,75.79
2024-02-16T11:43:15.550Z,76.47
2024-02-16T11:44:15.537Z,76.17
2024-02-16T11:45:15.558Z,75.96
2024-02-16T11:46:15.622Z,76.17
2024-02-16T11:47:15.542Z,76.47
2024-02-16T11:48:15.621Z,76.06
2024-02-16T11:49:15.628Z,75.86
2024-02-16T11:50:15.545Z,75.96
2024-02-16T11:51:15.509Z,76.98
2024-02-16T11:52:15.509Z,76.37
2024-02-16T11:53:15.501Z,76.17
2024-02-16T11:54:15.450Z,75.76
2024-02-16T11:55:15.426Z,76.17
2024-02-16T11:56:15.447Z,76.27
2024-02-16T11:57:15.417Z,76.67
2024-02-16T11:58:15.414Z,76.06
2024-02-16T11:59:15.382Z,75.76
2024-02-16T12:00:15.424Z,75.73
2024-02-16T12:01:15.415Z,75.32
2024-02-16T12:02:15.341Z,75.62
2024-02-16T12:03:15.418Z,75.32
2024-02-16T12:04:15.297Z,74.51
2024-02-16T12:05:15.406Z,74.81
2024-02-16T12:06:15.475Z,73.90
2024-02-16T12:07:15.360Z,73.80
2024-02-16T12:08:15.362Z,74.07
2024-02-16T12:09:15.394Z,73.56
2024-02-16T12:10:15.230Z,73.36
2024-02-16T12:11:15.340Z,73.16
2024-02-16T12:12:15.279Z,73.36
2024-02-16T12:13:15.263Z,73.16
2024-02-16T12:14:15.252Z,72.96
2024-02-16T12:15:15.564Z,73.36
2024-02-16T12:16:15.184Z,73.97
2024-02-16T12:17:15.221Z,74.48
2024-02-16T12:18:15.252Z,74.57
2024-02-16T12:19:15.318Z,73.76
2024-02-16T12:20:15.783Z,74.21
2024-02-16T12:21:15.276Z,73.90
2024-02-16T12:22:15.396Z,74.10
2024-02-16T12:23:15.152Z,73.80
2024-02-16T12:24:15.212Z,73.60
2024-02-16T12:25:15.143Z,74.30
2024-02-16T12:26:15.302Z,73.70
2024-02-16T12:27:15.309Z,74.30
2024-02-16T12:28:15.096Z,74.30
2024-02-16T12:29:15.217Z,74.51
2024-02-16T12:30:15.279Z,73.70
2024-02-16T12:31:15.206Z,74.30
2024-02-16T12:32:15.053Z,74.00
2024-02-16T12:33:15.158Z,73.60
2024-02-16T12:34:15.279Z,73.70
2024-02-16T12:35:15.199Z,74.27
2024-02-16T12:36:15.043Z,73.76
2024-02-16T12:37:15.021Z,73.86
2024-02-16T12:38:14.971Z,73.46
2024-02-16T12:39:15.110Z,73.46
2024-02-16T12:40:15.016Z,73.56
2024-02-16T12:41:14.996Z,73.46
2024-02-16T12:42:14.946Z,73.76
2024-02-16T12:43:14.989Z,73.56
2024-02-16T12:44:14.937Z,73.36
2024-02-16T12:45:15.159Z,74.27
2024-02-16T12:46:14.896Z,74.48
2024-02-16T12:47:15.861Z,74.07
2024-02-16T12:48:14.973Z,73.46
2024-02-16T12:49:15.151Z,73.86
2024-02-16T12:50:15.093Z,73.83
2024-02-16T12:51:14.915Z,73.22
2024-02-16T12:52:14.873Z,73.12